createdAt,value
2023-04-20T00:01:27.655Z,1.90
2023-04-20T00:03:55.757Z,2.00
2023-04-20T00:06:25.570Z,1.90
2023-04-20T00:08:53.633Z,1.80
2023-04-20T00:11:21.587Z,1.70
2023-04-20T00:13:51.080Z,1.53
2023-04-20T00:16:19.675Z,1.73
2023-04-20T00:18:48.187Z,1.90
2023-04-20T00:21:16.901Z,1.33
2023-04-20T00:23:44.947Z,2.43
2023-04-20T00:26:12.951Z,1.97
2023-04-20T00:28:41.011Z,1.77
2023-04-20T00:31:11.027Z,2.30
2023-04-20T00:33:39.017Z,1.40
2023-04-20T00:36:07.317Z,1.50
2023-04-20T00:38:35.720Z,2.10
2023-04-20T00:41:03.897Z,1.90
2023-04-20T00:43:31.899Z,2.00
2023-04-20T00:45:59.853Z,2.20
2023-04-20T00:48:29.231Z,5.30
2023-04-20T00:50:57.766Z,4.97
2023-04-20T00:53:25.749Z,4.80
2023-04-20T00:55:53.804Z,4.50
2023-04-20T00:58:22.546Z,4.67
2023-04-20T01:00:50.605Z,4.50
2023-04-20T01:03:18.845Z,4.17
2023-04-20T01:05:48.366Z,4.13
2023-04-20T01:08:16.351Z,4.50
2023-04-20T01:10:44.384Z,3.97
2023-04-20T01:13:12.282Z,4.13
2023-04-20T01:15:40.267Z,4.40
2023-04-20T01:18:09.694Z,3.80
2023-04-20T01:20:37.640Z,4.23
2023-04-20T01:23:06.977Z,1.83
2023-04-20T01:25:34.939Z,1.67
2023-04-20T01:28:03.178Z,1.70
2023-04-20T01:30:31.272Z,1.70
2023-04-20T01:32:59.304Z,1.67
2023-04-20T01:35:27.404Z,2.00
2023-04-20T01:37:55.440Z,1.37
2023-04-20T01:40:24.821Z,1.57
2023-04-20T01:42:52.770Z,1.60
2023-04-20T01:45:20.877Z,2.23
2023-04-20T01:47:48.875Z,1.50
2023-04-20T01:50:16.922Z,2.07
2023-04-20T01:52:44.883Z,1.43
2023-04-20T01:55:12.898Z,1.83
2023-04-20T01:57:42.218Z,1.83
2023-04-20T02:00:11.234Z,1.43
2023-04-20T02:02:39.353Z,1.70
2023-04-20T02:05:08.218Z,1.67
2023-04-20T02:07:36.173Z,1.23
2023-04-20T02:10:04.667Z,1.50
2023-04-20T02:12:32.632Z,1.70
2023-04-20T02:15:01.914Z,1.60
2023-04-20T02:17:30.088Z,1.90
2023-04-20T02:19:58.074Z,2.10
2023-04-20T02:22:26.067Z,1.60
2023-04-20T02:24:54.029Z,1.50
2023-04-20T02:27:21.995Z,1.83
2023-04-20T02:29:50.313Z,1.67
2023-04-20T02:32:19.674Z,1.57
2023-04-20T02:34:47.636Z,2.23
2023-04-20T02:37:15.779Z,1.47
2023-04-20T02:39:43.799Z,5.43
2023-04-20T02:42:11.742Z,13.37
2023-04-20T02:44:39.602Z,13.10
2023-04-20T02:47:07.671Z,13.13
2023-04-20T02:49:37.111Z,13.33
2023-04-20T02:52:05.330Z,11.93
2023-04-20T02:54:33.344Z,12.60
2023-04-20T02:57:01.678Z,12.60
2023-04-20T02:59:29.652Z,12.23
2023-04-20T03:01:57.752Z,12.17
2023-04-20T03:04:26.401Z,12.13
2023-04-20T03:06:55.989Z,13.23
2023-04-20T03:09:23.898Z,12.43
2023-04-20T03:11:52.137Z,12.07
2023-04-20T03:14:20.438Z,12.73
2023-04-20T03:16:48.542Z,12.70
2023-04-20T03:19:17.424Z,11.00
2023-04-20T03:21:46.127Z,11.50
2023-04-20T03:24:16.246Z,11.83
2023-04-20T03:26:44.402Z,11.67
2023-04-20T03:29:12.365Z,11.80
2023-04-20T03:31:40.447Z,12.13
2023-04-20T03:34:08.465Z,12.57
2023-04-20T03:36:36.959Z,11.43
2023-04-20T03:39:05.757Z,11.57
2023-04-20T03:41:35.014Z,11.40
2023-04-20T03:44:02.985Z,12.10
2023-04-20T03:46:31.044Z,12.57
2023-04-20T03:48:58.979Z,11.63
2023-04-20T03:51:27.017Z,11.30
2023-04-20T03:53:54.998Z,11.50
2023-04-20T03:56:23.015Z,10.93
2023-04-20T03:58:52.342Z,11.87
2023-04-20T04:01:20.418Z,11.30
2023-04-20T04:03:48.768Z,11.57
2023-04-20T04:06:17.031Z,11.30
2023-04-20T04:08:45.049Z,11.20
2023-04-20T04:11:12.979Z,11.77
2023-04-20T04:13:40.900Z,10.60
2023-04-20T04:16:10.272Z,10.23
2023-04-20T04:18:38.208Z,10.50
2023-04-20T04:21:08.256Z,11.07
2023-04-20T04:23:37.375Z,11.07
2023-04-20T04:26:05.914Z,10.97
2023-04-20T04:28:33.866Z,11.53
2023-04-20T04:31:06.272Z,11.37
2023-04-20T04:33:35.733Z,11.60
2023-04-20T04:36:04.163Z,11.13
2023-04-20T04:38:33.440Z,11.30
2023-04-20T04:41:01.673Z,11.57
2023-04-20T04:43:31.319Z,12.00
2023-04-20T04:45:59.544Z,13.97
2023-04-20T04:48:28.015Z,11.63
2023-04-20T04:50:57.285Z,11.20
2023-04-20T04:53:25.235Z,11.43
2023-04-20T04:55:53.245Z,11.60
2023-04-20T04:58:21.459Z,12.10
2023-04-20T05:00:52.022Z,11.97
2023-04-20T05:03:20.057Z,12.30
2023-04-20T05:05:48.070Z,13.77
2023-04-20T05:08:17.543Z,11.67
2023-04-20T05:10:45.629Z,12.43
2023-04-20T05:13:13.646Z,12.00
2023-04-20T05:15:43.358Z,12.40
2023-04-20T05:18:11.829Z,12.93
2023-04-20T05:20:39.870Z,12.43
2023-04-20T05:23:08.872Z,12.53
2023-04-20T05:25:38.961Z,11.57
2023-04-20T05:28:07.215Z,13.50
2023-04-20T05:30:35.309Z,12.57
2023-04-20T05:33:03.271Z,12.57
2023-04-20T05:35:31.243Z,13.80
2023-04-20T05:38:00.502Z,13.33
2023-04-20T05:40:28.553Z,13.00
2023-04-20T05:42:57.835Z,13.70
2023-04-20T05:45:25.869Z,13.20
2023-04-20T05:47:56.944Z,13.87
2023-04-20T05:50:25.647Z,14.40
2023-04-20T05:52:54.269Z,13.73
2023-04-20T05:55:22.976Z,14.10
2023-04-20T05:57:52.777Z,14.43
2023-04-20T06:00:25.729Z,14.50
2023-04-20T06:02:54.587Z,14.17
2023-04-20T06:05:22.879Z,15.03
2023-04-20T06:07:51.001Z,14.70
2023-04-20T06:10:18.997Z,15.17
2023-04-20T06:12:47.586Z,15.47
2023-04-20T06:15:15.553Z,15.47
2023-04-20T06:17:44.888Z,15.20
2023-04-20T06:20:13.184Z,17.00
2023-04-20T06:22:45.411Z,15.77
2023-04-20T06:25:15.525Z,16.73
2023-04-20T06:27:43.851Z,16.60
2023-04-20T06:30:12.939Z,16.30
2023-04-20T06:32:40.911Z,16.23
2023-04-20T06:35:10.708Z,15.63
2023-04-20T06:37:38.940Z,16.10
2023-04-20T06:40:09.490Z,16.07
2023-04-20T06:42:37.964Z,16.87
2023-04-20T06:45:07.561Z,16.60
2023-04-20T06:47:35.937Z,16.07
2023-04-20T06:50:07.401Z,16.80
2023-04-20T06:52:37.882Z,16.17
2023-04-20T06:55:06.635Z,16.47
2023-04-20T06:57:34.655Z,15.87
2023-04-20T07:00:02.877Z,15.53
2023-04-20T07:02:30.859Z,16.20
2023-04-20T07:05:02.756Z,15.97
2023-04-20T07:07:30.940Z,17.23
2023-04-20T07:10:00.559Z,16.80
2023-04-20T07:12:29.022Z,16.27
2023-04-20T07:14:56.971Z,16.93
2023-04-20T07:17:29.449Z,17.20
2023-04-20T07:19:58.219Z,16.77
2023-04-20T07:22:26.690Z,17.13
2023-04-20T07:24:54.707Z,15.97
2023-04-20T07:27:24.078Z,17.63
2023-04-20T07:29:52.154Z,16.90
2023-04-20T07:32:20.383Z,16.80
2023-04-20T07:34:48.417Z,16.57
2023-04-20T07:37:16.412Z,15.67
2023-04-20T07:39:44.450Z,15.73
2023-04-20T07:42:12.455Z,15.60
2023-04-20T07:44:41.757Z,15.23
2023-04-20T07:47:09.693Z,15.60
2023-04-20T07:49:38.673Z,14.87
2023-04-20T07:52:16.270Z,15.70
2023-04-20T07:54:45.396Z,15.83
2023-04-20T07:57:13.623Z,14.37
2023-04-20T07:59:43.522Z,14.30
2023-04-20T08:02:11.553Z,14.07
2023-04-20T08:04:40.429Z,14.20
2023-04-20T08:07:08.737Z,13.70
2023-04-20T08:09:36.841Z,12.83
2023-04-20T08:12:05.224Z,13.67
2023-04-20T08:14:33.718Z,12.80
2023-04-20T08:17:03.269Z,12.70
2023-04-20T08:19:31.305Z,13.40
2023-04-20T08:22:00.652Z,13.03
2023-04-20T08:24:29.724Z,12.53
2023-04-20T08:26:59.325Z,13.40
2023-04-20T08:29:27.664Z,13.03
2023-04-20T08:31:55.815Z,12.80
2023-04-20T08:34:25.370Z,14.07
2023-04-20T08:36:53.444Z,12.53
2023-04-20T08:39:24.376Z,12.37
2023-04-20T08:41:54.017Z,11.43
2023-04-20T08:44:22.260Z,12.73
2023-04-20T08:46:50.724Z,11.97
2023-04-20T08:49:20.961Z,11.93
2023-04-20T08:51:51.559Z,12.90
2023-04-20T08:54:20.003Z,11.80
2023-04-20T08:56:49.306Z,12.07
2023-04-20T08:59:17.726Z,12.63
2023-04-20T09:01:46.480Z,13.97
2023-04-20T09:04:19.563Z,13.03
2023-04-20T09:06:50.267Z,13.03
2023-04-20T09:09:20.396Z,13.30
2023-04-20T09:11:48.875Z,13.03
2023-04-20T09:14:18.524Z,14.33
2023-04-20T09:16:54.363Z,12.83
2023-04-20T09:19:25.699Z,12.83
2023-04-20T09:21:54.859Z,12.70
2023-04-20T09:24:31.449Z,13.13
2023-04-20T09:26:59.434Z,13.60
2023-04-20T09:29:27.885Z,13.83
2023-04-20T09:31:56.288Z,13.37
2023-04-20T09:34:25.774Z,12.57
2023-04-20T09:36:55.977Z,12.70
2023-04-20T09:39:26.970Z,12.43
2023-04-20T09:42:05.372Z,13.63
2023-04-20T09:44:34.121Z,12.70
2023-04-20T09:47:02.142Z,11.63
2023-04-20T09:49:30.826Z,11.48
2023-04-20T09:52:02.801Z,11.73
2023-04-20T09:54:32.648Z,11.95
2023-04-20T09:57:01.784Z,12.27
2023-04-20T09:59:30.552Z,12.50
2023-04-20T10:01:58.531Z,13.27
2023-04-20T10:04:26.984Z,12.27
2023-04-20T10:06:58.022Z,11.88
2023-04-20T10:09:27.437Z,11.65
2023-04-20T10:12:07.108Z,11.57
2023-04-20T10:14:35.718Z,11.35
2023-04-20T10:17:05.751Z,12.50
2023-04-20T10:19:41.209Z,11.95
2023-04-20T10:22:10.453Z,12.32
2023-04-20T10:24:39.114Z,12.43
2023-04-20T10:27:19.446Z,12.45
2023-04-20T10:29:47.867Z,11.57
2023-04-20T10:32:26.962Z,11.57
2023-04-20T10:35:06.582Z,12.02
2023-04-20T10:37:37.714Z,12.18
2023-04-20T10:40:08.118Z,11.27
2023-04-20T10:42:44.912Z,10.80
2023-04-20T10:45:13.648Z,10.43
2023-04-20T10:47:41.978Z,10.10
2023-04-20T10:50:12.201Z,10.55
2023-04-20T10:52:42.676Z,10.63
2023-04-20T10:55:21.101Z,11.15
2023-04-20T10:57:50.578Z,11.10
2023-04-20T11:00:20.550Z,10.15
2023-04-20T11:02:52.829Z,10.00
2023-04-20T11:05:21.773Z,10.25
2023-04-20T11:07:53.334Z,10.20
2023-04-20T11:10:22.145Z,9.38
2023-04-20T11:12:52.142Z,9.40
2023-04-20T11:15:20.099Z,9.02
2023-04-20T11:17:48.153Z,8.68
2023-04-20T11:20:17.718Z,9.40
2023-04-20T11:22:57.376Z,9.57
2023-04-20T11:25:25.385Z,8.95
2023-04-20T11:27:54.837Z,9.35
2023-04-20T11:30:22.859Z,8.85
2023-04-20T11:32:55.910Z,8.95
2023-04-20T11:35:24.136Z,9.15
2023-04-20T11:37:53.812Z,8.88
2023-04-20T11:40:22.047Z,8.88
2023-04-20T11:42:50.954Z,8.70
2023-04-20T11:45:20.272Z,8.27
2023-04-20T11:47:49.474Z,8.70
2023-04-20T11:50:17.554Z,8.10
2023-04-20T11:52:45.531Z,8.43
2023-04-20T11:55:13.435Z,9.82
2023-04-20T11:57:41.405Z,8.70
2023-04-20T12:00:10.760Z,8.90
2023-04-20T12:02:40.232Z,9.38
2023-04-20T12:05:09.070Z,9.27
2023-04-20T12:07:37.091Z,9.50
2023-04-20T12:10:05.393Z,9.80
2023-04-20T12:12:34.081Z,8.97
2023-04-20T12:15:01.981Z,9.33
2023-04-20T12:17:30.026Z,10.10
2023-04-20T12:19:59.399Z,10.03
2023-04-20T12:22:27.567Z,10.07
2023-04-20T12:24:55.476Z,9.60
2023-04-20T12:27:23.561Z,9.83
2023-04-20T12:29:51.510Z,9.97
2023-04-20T12:32:19.658Z,11.33
2023-04-20T12:34:47.621Z,8.57
2023-04-20T12:37:16.972Z,9.00
2023-04-20T12:39:44.944Z,8.93
2023-04-20T12:42:12.962Z,8.70
2023-04-20T12:44:41.040Z,9.27
2023-04-20T12:47:10.369Z,9.57
2023-04-20T12:49:38.443Z,9.43
2023-04-20T12:52:08.105Z,9.33
2023-04-20T12:54:37.733Z,8.83
2023-04-20T12:57:05.775Z,8.20
2023-04-20T12:59:33.781Z,6.47
2023-04-20T13:02:02.579Z,6.83
2023-04-20T13:04:30.838Z,5.97
2023-04-20T13:06:58.947Z,6.90
2023-04-20T13:09:28.312Z,7.73
2023-04-20T13:11:57.976Z,8.03
2023-04-20T13:14:26.631Z,7.77
2023-04-20T13:16:55.539Z,7.30
2023-04-20T13:19:24.148Z,7.30
2023-04-20T13:21:52.170Z,7.27
2023-04-20T13:24:20.565Z,6.50
2023-04-20T13:26:48.887Z,6.80
2023-04-20T13:29:18.415Z,7.13
2023-04-20T13:31:47.605Z,8.30
2023-04-20T13:34:15.833Z,8.27
2023-04-20T13:36:44.321Z,8.03
2023-04-20T13:39:13.467Z,8.40
2023-04-20T13:41:41.435Z,8.93
2023-04-20T13:44:15.867Z,9.27
2023-04-20T13:46:46.439Z,9.67
2023-04-20T13:49:15.582Z,7.37
2023-04-20T13:51:43.859Z,8.60
2023-04-20T13:54:12.033Z,8.07
2023-04-20T13:56:40.038Z,7.57
2023-04-20T13:59:08.031Z,8.10
2023-04-20T14:01:36.894Z,7.53
2023-04-20T14:04:06.762Z,7.67
2023-04-20T14:06:35.007Z,7.20
2023-04-20T14:09:03.045Z,7.00
2023-04-20T14:11:31.033Z,6.60
2023-04-20T14:13:59.066Z,6.63
2023-04-20T14:16:27.346Z,7.27
2023-04-20T14:18:55.383Z,6.70
2023-04-20T14:21:24.798Z,8.33
2023-04-20T14:23:54.674Z,8.10
2023-04-20T14:26:22.748Z,7.33
2023-04-20T14:28:52.588Z,6.33
2023-04-20T14:31:20.894Z,5.23
2023-04-20T14:33:48.963Z,6.87
2023-04-20T14:36:16.878Z,6.77
2023-04-20T14:38:46.282Z,7.27
2023-04-20T14:41:14.263Z,6.20
2023-04-20T14:43:42.246Z,6.03
2023-04-20T14:46:12.683Z,5.53
2023-04-20T14:48:42.035Z,4.93
2023-04-20T14:51:12.233Z,5.50
2023-04-20T14:53:40.302Z,5.57
2023-04-20T14:56:09.801Z,5.50
2023-04-20T14:58:38.394Z,7.50
2023-04-20T15:01:06.876Z,6.40
2023-04-20T15:03:34.995Z,6.30
2023-04-20T15:06:04.178Z,5.93
2023-04-20T15:08:32.240Z,6.50
2023-04-20T15:11:02.149Z,7.40
2023-04-20T15:13:31.479Z,6.93
2023-04-20T15:15:59.705Z,7.37
2023-04-20T15:18:27.966Z,7.43
2023-04-20T15:20:55.936Z,6.33
2023-04-20T15:23:24.795Z,6.43
2023-04-20T15:25:53.685Z,6.47
2023-04-20T15:28:21.749Z,6.77
2023-04-20T15:30:51.347Z,7.97
2023-04-20T15:33:19.668Z,6.83
2023-04-20T15:35:50.860Z,6.87
2023-04-20T15:38:18.933Z,7.63
2023-04-20T15:40:47.821Z,7.10
2023-04-20T15:43:15.835Z,6.63
2023-04-20T15:45:44.893Z,7.30
2023-04-20T15:48:14.386Z,7.37
2023-04-20T15:50:42.517Z,7.43
2023-04-20T15:53:10.477Z,7.03
2023-04-20T15:55:40.052Z,7.87
2023-04-20T15:58:08.007Z,7.00
2023-04-20T16:00:37.000Z,7.17
2023-04-20T16:03:05.874Z,6.37
2023-04-20T16:05:38.475Z,6.30
2023-04-20T16:08:06.734Z,6.43
2023-04-20T16:10:37.840Z,6.67
2023-04-20T16:13:06.289Z,6.67
2023-04-20T16:15:34.207Z,6.77
2023-04-20T16:18:05.074Z,6.83
2023-04-20T16:20:34.662Z,5.77
2023-04-20T16:23:04.069Z,7.67
2023-04-20T16:25:34.111Z,6.37
2023-04-20T16:28:02.292Z,6.23
2023-04-20T16:30:30.411Z,6.60
2023-04-20T16:32:59.919Z,6.57
2023-04-20T16:35:28.170Z,6.53
2023-04-20T16:37:56.676Z,11.73
2023-04-20T16:40:26.717Z,9.10
2023-04-20T16:42:55.430Z,8.30
2023-04-20T16:45:23.393Z,7.10
2023-04-20T16:47:52.491Z,6.70
2023-04-20T16:50:20.734Z,6.47
2023-04-20T16:52:49.076Z,6.60
2023-04-20T16:55:17.285Z,5.90
2023-04-20T16:57:46.751Z,6.23
2023-04-20T17:00:15.978Z,6.30
2023-04-20T17:02:44.067Z,5.80
2023-04-20T17:05:12.492Z,5.70
2023-04-20T17:07:40.880Z,5.83
2023-04-20T17:10:09.460Z,6.13
2023-04-20T17:12:38.825Z,5.60
2023-04-20T17:15:11.386Z,5.73
2023-04-20T17:17:39.477Z,6.57
2023-04-20T17:20:08.932Z,7.00
2023-04-20T17:22:37.451Z,7.10
2023-04-20T17:25:07.763Z,7.10
2023-04-20T17:27:36.659Z,8.50
2023-04-20T17:30:05.655Z,10.90
2023-04-20T17:32:35.488Z,9.47
2023-04-20T17:35:03.761Z,9.27
2023-04-20T17:37:31.798Z,8.60
2023-04-20T17:39:59.774Z,8.47
2023-04-20T17:42:28.192Z,8.60
2023-04-20T17:44:56.329Z,8.43
2023-04-20T17:47:24.389Z,8.87
2023-04-20T17:49:54.109Z,8.77
2023-04-20T17:52:25.275Z,8.53
2023-04-20T17:54:54.660Z,8.83
2023-04-20T17:57:22.713Z,8.27
2023-04-20T17:59:50.808Z,8.50
2023-04-20T18:02:19.062Z,9.10
2023-04-20T18:04:47.338Z,8.73
2023-04-20T18:07:17.935Z,9.13
2023-04-20T18:09:47.157Z,8.53
2023-04-20T18:12:15.410Z,8.53
2023-04-20T18:14:44.818Z,8.63
2023-04-20T18:17:13.369Z,9.50
2023-04-20T18:19:43.182Z,8.03
2023-04-20T18:22:13.558Z,8.17
2023-04-20T18:24:43.209Z,8.17
2023-04-20T18:27:11.557Z,8.33
2023-04-20T18:29:39.621Z,11.17
2023-04-20T18:32:13.202Z,13.33
2023-04-20T18:34:43.718Z,15.23
2023-04-20T18:37:14.179Z,15.90
2023-04-20T18:39:50.808Z,16.30
2023-04-20T18:42:21.063Z,15.73
2023-04-20T18:44:51.537Z,14.90
2023-04-20T18:47:21.372Z,13.97
2023-04-20T18:49:56.004Z,12.80
2023-04-20T18:52:26.857Z,13.03
2023-04-20T18:54:57.886Z,12.43
2023-04-20T18:57:30.211Z,13.13
2023-04-20T18:59:58.681Z,13.23
2023-04-20T19:02:27.144Z,13.93
2023-04-20T19:04:55.775Z,13.20
2023-04-20T19:07:33.664Z,13.17
2023-04-20T19:10:03.114Z,13.30
2023-04-20T19:12:31.619Z,11.83
2023-04-20T19:15:04.671Z,13.47
2023-04-20T19:17:33.186Z,12.23
2023-04-20T19:20:01.496Z,14.47
2023-04-20T19:22:30.304Z,15.23
2023-04-20T19:24:58.832Z,18.27
2023-04-20T19:27:28.591Z,16.73
2023-04-20T19:29:58.523Z,15.37
2023-04-20T19:32:27.994Z,14.30
2023-04-20T19:34:59.233Z,14.50
2023-04-20T19:37:27.811Z,13.70
2023-04-20T19:39:56.218Z,14.27
2023-04-20T19:42:42.578Z,14.87
2023-04-20T19:45:12.876Z,14.33
2023-04-20T19:47:41.087Z,15.87
2023-04-20T19:50:12.328Z,15.77
2023-04-20T19:52:42.875Z,17.73
2023-04-20T19:55:14.557Z,19.57
2023-04-20T19:57:42.848Z,20.40
2023-04-20T20:00:17.281Z,19.53
2023-04-20T20:02:45.818Z,20.70
2023-04-20T20:05:19.723Z,20.27
2023-04-20T20:07:52.315Z,22.33
2023-04-20T20:10:55.760Z,23.20
2023-04-20T20:13:28.401Z,29.37
2023-04-20T20:16:05.487Z,29.10
2023-04-20T20:18:37.593Z,28.80
2023-04-20T20:21:13.651Z,28.43
2023-04-20T20:23:49.009Z,27.37
2023-04-20T20:26:18.555Z,27.03
2023-04-20T20:28:49.940Z,26.30
2023-04-20T20:31:20.164Z,26.60
2023-04-20T20:33:49.764Z,27.30
2023-04-20T20:36:18.853Z,24.50
2023-04-20T20:38:47.424Z,24.13
2023-04-20T20:41:19.455Z,26.40
2023-04-20T20:43:50.478Z,25.43
2023-04-20T20:46:20.401Z,23.33
2023-04-20T20:48:50.110Z,21.63
2023-04-20T20:51:18.904Z,21.37
2023-04-20T20:53:49.586Z,20.57
2023-04-20T20:56:18.126Z,21.03
2023-04-20T20:58:47.221Z,24.00
2023-04-20T21:01:16.179Z,19.93
2023-04-20T21:03:45.722Z,20.50
2023-04-20T21:06:14.784Z,19.57
2023-04-20T21:08:43.667Z,19.77
2023-04-20T21:11:17.031Z,19.80
2023-04-20T21:13:46.528Z,19.73
2023-04-20T21:16:18.705Z,20.30
2023-04-20T21:18:48.429Z,21.83
2023-04-20T21:21:23.455Z,20.50
2023-04-20T21:23:52.940Z,21.63
2023-04-20T21:26:21.690Z,20.93
2023-04-20T21:28:50.628Z,20.27
2023-04-20T21:31:19.538Z,20.23
2023-04-20T21:33:49.322Z,18.53
2023-04-20T21:36:18.837Z,15.03
2023-04-20T21:38:49.060Z,14.13
2023-04-20T21:41:19.360Z,11.70
2023-04-20T21:43:49.790Z,12.10
2023-04-20T21:46:19.448Z,9.87
2023-04-20T21:48:51.601Z,9.80
2023-04-20T21:51:23.515Z,9.60
2023-04-20T21:53:52.050Z,9.17
2023-04-20T21:56:20.285Z,8.97
2023-04-20T21:58:48.306Z,8.63
2023-04-20T22:01:16.436Z,7.40
2023-04-20T22:03:44.641Z,8.40
2023-04-20T22:06:14.166Z,7.93
2023-04-20T22:08:42.185Z,8.10
2023-04-20T22:11:10.388Z,8.37
2023-04-20T22:13:38.619Z,7.83
2023-04-20T22:16:07.269Z,8.90
2023-04-20T22:18:35.363Z,10.07
2023-04-20T22:21:03.681Z,14.20
2023-04-20T22:23:33.033Z,15.97
2023-04-20T22:26:01.143Z,14.90
2023-04-20T22:28:29.347Z,14.93
2023-04-20T22:30:57.340Z,16.27
2023-04-20T22:33:25.895Z,14.37
2023-04-20T22:35:53.990Z,14.60
2023-04-20T22:38:22.012Z,15.87
2023-04-20T22:40:51.452Z,15.70
2023-04-20T22:43:20.484Z,16.43
2023-04-20T22:45:48.957Z,16.00
2023-04-20T22:48:17.635Z,15.73
2023-04-20T22:50:45.565Z,16.67
2023-04-20T22:53:13.890Z,16.30
2023-04-20T22:55:42.051Z,16.70
2023-04-20T22:58:11.689Z,15.97
2023-04-20T23:00:39.767Z,15.13
2023-04-20T23:03:08.201Z,18.03
2023-04-20T23:05:36.426Z,18.97
2023-04-20T23:08:04.724Z,18.00
2023-04-20T23:10:32.755Z,20.53
2023-04-20T23:13:00.942Z,24.77
2023-04-20T23:15:30.595Z,26.33
2023-04-20T23:17:58.608Z,26.87
2023-04-20T23:20:26.974Z,29.93
2023-04-20T23:22:54.956Z,28.87
2023-04-20T23:25:22.864Z,29.03
2023-04-20T23:27:50.903Z,29.13
2023-04-20T23:30:19.039Z,29.13
2023-04-20T23:32:48.431Z,29.13
2023-04-20T23:35:16.609Z,30.83
2023-04-20T23:37:44.659Z,31.63
2023-04-20T23:40:12.958Z,29.43
2023-04-20T23:42:40.851Z,30.27
2023-04-20T23:45:10.104Z,29.80
2023-04-20T23:47:38.038Z,29.77
2023-04-20T23:50:09.087Z,28.07
2023-04-20T23:52:37.141Z,27.17
2023-04-20T23:55:06.268Z,25.07
2023-04-20T23:57:34.252Z,25.43
